Time;durP1;ratioP1;P1;durP2;ratioP2;P2;SDS_P1;SDS_P2;PMS_P1;PMS_P2;Temp;Humidity;BMP_temperature;BMP_pressure;BME280_temperature;BME280_humidity;BME280_pressure;Samples;Min_cycle;Max_cycle;Signal;HPM_P1;HPM_P2
2021/11/26 00:00:31;;;;;;;9.30;5.45;;;1.30;99.90;;;;;;4978724;28;20112;-85
2021/11/26 00:02:57;;;;;;;9.45;5.93;;;1.30;99.90;;;;;;5002789;28;20042;-86
2021/11/26 00:05:22;;;;;;;11.95;6.25;;;1.30;99.90;;;;;;4994857;28;20034;-86
2021/11/26 00:07:48;;;;;;;10.52;5.78;;;1.40;99.90;;;;;;4978447;28;20041;-86
2021/11/26 00:10:14;;;;;;;11.02;5.85;;;1.40;99.90;;;;;;5010952;28;20052;-85
2021/11/26 00:12:46;;;;;;;10.18;5.60;;;1.40;99.90;;;;;;5011075;28;20416;-86
2021/11/26 00:17:51;;;;;;;10.90;6.15;;;1.40;99.90;;;;;;5011933;28;20034;-86
2021/11/26 00:20:17;;;;;;;9.15;5.65;;;1.30;99.90;;;;;;4995239;28;20084;-86
2021/11/26 00:22:43;;;;;;;11.10;5.55;;;1.30;99.90;;;;;;4983806;28;20049;-86
2021/11/26 00:25:09;;;;;;;11.45;6.13;;;1.30;99.90;;;;;;4974926;28;20042;-84
2021/11/26 00:27:35;;;;;;;11.93;6.38;;;1.30;99.90;;;;;;4993583;28;20065;-85
2021/11/26 00:30:02;;;;;;;9.48;5.28;;;1.30;99.90;;;;;;4993971;28;20149;-86
2021/11/26 00:32:28;;;;;;;9.48;5.68;;;1.30;99.90;;;;;;5010718;28;20124;-86
2021/11/26 00:34:54;;;;;;;12.10;6.65;;;1.30;99.90;;;;;;5010521;28;20108;-85
2021/11/26 00:37:20;;;;;;;10.20;5.75;;;1.30;99.90;;;;;;4994197;28;20034;-86
2021/11/26 00:39:46;;;;;;;8.68;5.85;;;1.30;99.90;;;;;;4994108;28;20112;-85
2021/11/26 00:42:11;;;;;;;10.75;5.88;;;1.30;99.90;;;;;;4978259;28;20088;-85
2021/11/26 00:44:37;;;;;;;12.00;6.22;;;1.30;99.90;;;;;;4978054;28;20104;-86
2021/11/26 00:47:03;;;;;;;10.00;6.10;;;1.30;99.90;;;;;;4978946;28;20531;-85
2021/11/26 00:49:28;;;;;;;12.40;6.72;;;1.30;99.90;;;;;;4991281;28;20149;-85
2021/11/26 00:51:54;;;;;;;9.98;6.20;;;1.30;99.90;;;;;;5010641;28;20041;-86
2021/11/26 00:54:20;;;;;;;11.32;6.07;;;1.30;99.90;;;;;;5011551;28;20030;-85
2021/11/26 00:56:46;;;;;;;11.75;6.40;;;1.40;99.90;;;;;;4984367;28;20023;-85
2021/11/26 00:59:12;;;;;;;13.60;6.40;;;1.40;99.90;;;;;;4974153;28;20045;-85
2021/11/26 01:01:37;;;;;;;10.27;5.88;;;1.40;99.90;;;;;;4958641;28;20046;-86
2021/11/26 01:04:03;;;;;;;9.75;5.40;;;1.30;99.90;;;;;;4977948;28;20057;-84
2021/11/26 01:06:31;;;;;;;8.93;5.30;;;1.30;99.90;;;;;;5009848;28;20042;-85
2021/11/26 01:08:57;;;;;;;12.20;5.57;;;1.30;99.90;;;;;;4977538;28;20041;-85
2021/11/26 01:11:23;;;;;;;8.38;5.32;;;1.30;99.90;;;;;;4994086;28;20117;-86
2021/11/26 01:13:50;;;;;;;10.90;5.97;;;1.30;99.90;;;;;;4977560;28;20116;-85
2021/11/26 01:16:16;;;;;;;11.18;6.28;;;1.30;99.90;;;;;;4992661;28;20034;-85
2021/11/26 01:18:42;;;;;;;10.13;5.82;;;1.30;99.90;;;;;;4974106;28;20064;-86
2021/11/26 01:21:08;;;;;;;10.57;5.38;;;1.30;99.90;;;;;;4974173;28;20675;-86
2021/11/26 01:23:35;;;;;;;10.05;6.40;;;1.30;99.90;;;;;;4973681;28;20042;-85
2021/11/26 01:26:02;;;;;;;12.63;7.00;;;1.30;99.90;;;;;;5003231;28;20034;-85
2021/11/26 01:28:28;;;;;;;10.15;6.18;;;1.30;99.90;;;;;;4977159;28;20034;-85
2021/11/26 01:30:54;;;;;;;10.82;6.25;;;1.30;99.90;;;;;;5009908;28;20053;-85
2021/11/26 01:33:21;;;;;;;10.10;5.75;;;1.30;99.90;;;;;;4993507;28;20072;-86
2021/11/26 01:35:50;;;;;;;9.65;6.18;;;1.30;99.90;;;;;;5005485;28;20031;-85
2021/11/26 01:38:16;;;;;;;10.00;5.95;;;1.30;99.90;;;;;;4990608;28;20053;-86
2021/11/26 01:40:42;;;;;;;9.80;5.93;;;1.30;99.90;;;;;;4973957;28;20026;-85
2021/11/26 01:43:11;;;;;;;10.35;6.20;;;1.30;99.90;;;;;;4991800;28;20049;-85
2021/11/26 01:45:46;;;;;;;11.02;5.63;;;1.40;99.90;;;;;;4993785;28;20050;-85
2021/11/26 01:48:12;;;;;;;12.07;6.60;;;1.40;99.90;;;;;;4974129;28;20034;-85
2021/11/26 01:50:39;;;;;;;10.85;6.28;;;1.40;99.90;;;;;;4990188;28;20507;-85
2021/11/26 01:53:05;;;;;;;11.07;5.68;;;1.40;99.90;;;;;;4993397;28;20037;-86
2021/11/26 01:55:32;;;;;;;9.90;5.60;;;1.30;99.90;;;;;;5009318;28;20091;-85
2021/11/26 01:57:59;;;;;;;14.85;6.30;;;1.30;99.90;;;;;;5008675;28;20037;-85
2021/11/26 02:00:28;;;;;;;12.43;6.55;;;1.30;99.90;;;;;;5007020;28;20042;-85
2021/11/26 02:02:54;;;;;;;11.18;6.38;;;1.30;99.90;;;;;;4992004;28;20157;-85
2021/11/26 02:05:20;;;;;;;11.48;6.20;;;1.30;99.90;;;;;;5009507;28;20548;-85
2021/11/26 02:07:46;;;;;;;10.02;6.25;;;1.30;99.90;;;;;;5009410;28;20060;-86
2021/11/26 02:10:11;;;;;;;10.15;6.28;;;1.40;99.90;;;;;;4985952;28;20062;-85
2021/11/26 02:12:37;;;;;;;12.90;6.32;;;1.30;99.90;;;;;;4993151;28;20077;-85
2021/11/26 02:15:05;;;;;;;10.90;6.50;;;1.30;99.90;;;;;;4982326;28;20033;-85
2021/11/26 02:17:31;;;;;;;11.35;6.32;;;1.30;99.90;;;;;;4989384;28;20564;-85
2021/11/26 02:19:57;;;;;;;12.20;6.60;;;1.30;99.90;;;;;;5005946;28;20140;-85
2021/11/26 02:22:24;;;;;;;10.60;5.85;;;1.30;99.90;;;;;;4991219;28;20022;-86
2021/11/26 02:24:49;;;;;;;11.98;6.55;;;1.30;99.90;;;;;;4989662;28;20037;-86
2021/11/26 02:27:17;;;;;;;10.75;5.90;;;1.30;99.90;;;;;;4973384;28;20426;-85
2021/11/26 02:29:43;;;;;;;13.55;6.35;;;1.30;99.90;;;;;;5008712;28;20034;-85
2021/11/26 02:32:09;;;;;;;10.88;6.45;;;1.30;99.90;;;;;;4990552;28;20061;-85
2021/11/26 02:34:35;;;;;;;9.20;5.57;;;1.30;99.90;;;;;;4993276;28;20076;-86
2021/11/26 02:37:01;;;;;;;9.55;6.00;;;1.30;99.90;;;;;;4993394;28;20471;-85
2021/11/26 02:39:27;;;;;;;11.35;6.15;;;1.40;99.90;;;;;;4979291;28;20527;-86
2021/11/26 02:41:53;;;;;;;11.00;6.22;;;1.40;99.90;;;;;;5012728;28;20700;-86
2021/11/26 02:44:18;;;;;;;11.35;6.88;;;1.30;99.90;;;;;;4996361;28;20040;-85
2021/11/26 02:46:45;;;;;;;12.35;6.75;;;1.30;99.90;;;;;;4992687;28;20038;-85
2021/11/26 02:49:11;;;;;;;10.13;6.18;;;1.30;99.90;;;;;;4976569;28;20173;-85
2021/11/26 02:51:37;;;;;;;11.98;6.35;;;1.30;99.90;;;;;;4976627;28;20509;-85
2021/11/26 02:54:03;;;;;;;12.13;6.45;;;1.30;99.90;;;;;;5003861;28;20038;-85
2021/11/26 02:56:29;;;;;;;13.43;6.10;;;1.20;99.90;;;;;;4989131;28;20034;-85
2021/11/26 02:58:56;;;;;;;10.00;6.53;;;1.30;99.90;;;;;;5011881;28;20425;-85
2021/11/26 03:01:22;;;;;;;11.80;6.15;;;1.20;99.90;;;;;;4976562;28;20065;-84
2021/11/26 03:03:48;;;;;;;11.95;6.68;;;1.20;99.90;;;;;;5008930;28;20044;-85
2021/11/26 03:06:14;;;;;;;11.77;6.68;;;1.20;99.90;;;;;;5008831;28;20034;-85
2021/11/26 03:08:39;;;;;;;9.23;5.55;;;1.20;99.90;;;;;;4977728;28;20092;-85
2021/11/26 03:11:06;;;;;;;13.40;6.93;;;1.20;99.90;;;;;;4992631;28;20064;-85
2021/11/26 03:13:32;;;;;;;10.73;6.70;;;1.20;99.90;;;;;;4995574;28;20022;-85
2021/11/26 03:15:58;;;;;;;8.82;6.07;;;1.20;99.90;;;;;;4975947;28;20039;-85
2021/11/26 03:18:27;;;;;;;11.85;6.80;;;1.20;99.90;;;;;;4976095;28;20035;-86
2021/11/26 03:20:52;;;;;;;11.50;6.55;;;1.20;99.90;;;;;;4986614;28;20030;-85
2021/11/26 03:23:21;;;;;;;15.52;7.68;;;1.20;99.90;;;;;;5011974;28;20033;-85
2021/11/26 03:25:47;;;;;;;13.63;7.35;;;1.30;99.90;;;;;;5011699;28;20481;-85
2021/11/26 03:28:15;;;;;;;12.60;6.40;;;1.30;99.90;;;;;;4988206;28;20030;-85
2021/11/26 03:30:41;;;;;;;11.93;7.03;;;1.20;99.90;;;;;;5011426;28;20037;-86
2021/11/26 03:33:08;;;;;;;10.68;6.22;;;1.10;99.90;;;;;;4979024;28;20030;-85
2021/11/26 03:35:35;;;;;;;12.45;6.53;;;1.10;99.90;;;;;;5011304;28;20109;-85
2021/11/26 03:38:30;;;;;;;11.40;7.05;;;1.00;99.90;;;;;;4995403;28;20026;-85
2021/11/26 03:40:56;;;;;;;14.38;6.78;;;1.00;99.90;;;;;;4975187;28;20100;-85
2021/11/26 03:43:21;;;;;;;11.25;6.75;;;1.00;99.90;;;;;;4959776;28;20448;-85
2021/11/26 03:45:47;;;;;;;10.38;6.07;;;1.00;99.90;;;;;;4974795;28;20042;-85
2021/11/26 03:48:13;;;;;;;12.25;6.97;;;1.00;99.90;;;;;;4959783;28;20030;-85
2021/11/26 03:50:39;;;;;;;13.15;6.93;;;0.90;99.90;;;;;;4975140;28;20062;-85
2021/11/26 03:53:04;;;;;;;11.63;6.75;;;1.00;99.90;;;;;;4975634;28;20660;-85
2021/11/26 03:55:31;;;;;;;13.43;6.93;;;0.90;99.90;;;;;;4984258;28;20436;-85
2021/11/26 03:57:58;;;;;;;11.27;6.82;;;0.90;99.90;;;;;;4991606;28;20033;-84
2021/11/26 04:00:25;;;;;;;10.52;6.50;;;0.90;99.90;;;;;;4991389;28;20030;-85
2021/11/26 04:02:51;;;;;;;14.82;6.53;;;0.90;99.90;;;;;;4991556;28;20056;-85
2021/11/26 04:05:17;;;;;;;12.23;7.18;;;0.80;99.90;;;;;;4991455;28;20034;-85
2021/11/26 04:07:44;;;;;;;14.00;7.13;;;0.80;99.90;;;;;;4975057;28;20162;-85
2021/11/26 04:10:11;;;;;;;11.55;6.72;;;0.80;99.90;;;;;;4998833;28;20039;-84
2021/11/26 04:12:37;;;;;;;11.13;6.97;;;0.80;99.90;;;;;;5027403;28;20088;-86
2021/11/26 04:15:06;;;;;;;11.95;6.70;;;0.80;99.90;;;;;;4991208;28;20045;-85
2021/11/26 04:17:33;;;;;;;12.18;6.80;;;0.80;99.90;;;;;;4975354;28;20030;-85
2021/11/26 04:19:59;;;;;;;16.92;7.30;;;0.80;99.90;;;;;;4993609;28;20037;-85
2021/11/26 04:22:25;;;;;;;11.35;6.60;;;0.80;99.90;;;;;;4992462;28;20116;-85
2021/11/26 04:24:51;;;;;;;12.50;6.63;;;0.80;99.90;;;;;;4975628;28;20140;-85
2021/11/26 04:27:17;;;;;;;15.00;7.72;;;0.80;99.90;;;;;;4960928;28;20099;-85
2021/11/26 04:29:43;;;;;;;13.88;8.02;;;0.90;99.90;;;;;;5011305;28;20021;-85
2021/11/26 04:32:09;;;;;;;13.43;7.57;;;0.90;99.90;;;;;;4992954;28;20488;-85
2021/11/26 04:34:35;;;;;;;12.60;7.13;;;0.90;99.90;;;;;;4959935;28;20056;-86
2021/11/26 04:37:01;;;;;;;12.55;7.40;;;0.90;99.90;;;;;;5010409;28;20041;-85
2021/11/26 04:39:27;;;;;;;13.20;7.18;;;0.90;99.90;;;;;;5010248;28;20050;-85
2021/11/26 04:41:52;;;;;;;12.40;6.93;;;0.90;99.90;;;;;;5026785;28;20037;-85
2021/11/26 04:44:18;;;;;;;12.63;7.57;;;0.90;99.90;;;;;;4990695;28;20038;-85
2021/11/26 04:46:44;;;;;;;11.90;6.80;;;0.90;99.90;;;;;;4993463;28;20061;-86
2021/11/26 04:49:10;;;;;;;12.15;6.93;;;0.80;99.90;;;;;;4976850;28;20041;-85
2021/11/26 04:51:35;;;;;;;13.48;6.97;;;0.80;99.90;;;;;;4977696;28;20037;-85
2021/11/26 04:54:04;;;;;;;12.27;6.72;;;0.80;99.90;;;;;;4987119;28;20542;-85
2021/11/26 04:56:30;;;;;;;12.10;6.82;;;0.90;99.90;;;;;;4992335;28;20058;-86
2021/11/26 04:58:56;;;;;;;12.88;6.95;;;0.90;99.90;;;;;;4993271;28;20508;-86
2021/11/26 05:01:22;;;;;;;12.77;7.00;;;0.90;99.90;;;;;;4977556;28;20036;-85
2021/11/26 05:03:48;;;;;;;12.85;7.10;;;0.90;99.90;;;;;;4992625;28;20046;-85
2021/11/26 05:06:13;;;;;;;12.18;6.78;;;0.90;99.90;;;;;;4993092;28;20041;-85
2021/11/26 05:08:39;;;;;;;11.25;6.68;;;0.90;99.90;;;;;;5009663;28;20033;-85
2021/11/26 05:11:05;;;;;;;12.95;7.25;;;0.90;99.90;;;;;;4993316;28;20030;-85
2021/11/26 05:13:33;;;;;;;11.95;6.88;;;0.90;99.90;;;;;;4977718;28;20029;-86
2021/11/26 05:16:00;;;;;;;11.23;7.00;;;0.90;99.90;;;;;;4990235;28;20030;-85
2021/11/26 05:18:26;;;;;;;11.63;6.40;;;0.90;99.90;;;;;;5006011;28;20034;-85
2021/11/26 05:20:53;;;;;;;11.65;6.68;;;0.90;99.90;;;;;;5026111;28;20473;-84
2021/11/26 05:23:20;;;;;;;13.55;7.03;;;0.90;99.90;;;;;;4995219;28;20034;-85
2021/11/26 05:25:46;;;;;;;9.35;5.93;;;0.90;99.90;;;;;;4992585;28;20449;-85
2021/11/26 05:28:12;;;;;;;9.75;6.13;;;1.00;99.90;;;;;;4992423;28;20053;-85
2021/11/26 05:30:39;;;;;;;11.85;6.45;;;1.00;99.90;;;;;;4987904;28;20036;-85
2021/11/26 05:33:04;;;;;;;11.02;6.68;;;1.00;99.90;;;;;;4977362;28;20030;-85
2021/11/26 05:35:31;;;;;;;13.23;6.63;;;1.00;99.90;;;;;;5007072;28;20053;-86
2021/11/26 05:37:57;;;;;;;12.98;6.78;;;1.10;99.90;;;;;;4974431;28;20125;-85
2021/11/26 05:40:23;;;;;;;12.70;6.40;;;1.00;99.90;;;;;;4980408;28;20121;-85
2021/11/26 05:42:49;;;;;;;10.13;6.40;;;1.00;99.90;;;;;;4977013;28;20552;-85
2021/11/26 05:45:16;;;;;;;11.98;7.30;;;1.00;99.90;;;;;;4979515;28;20075;-86
2021/11/26 05:47:42;;;;;;;10.45;5.95;;;1.00;99.90;;;;;;5019471;28;20554;-86
2021/11/26 05:50:14;;;;;;;12.27;7.35;;;1.00;99.90;;;;;;4990604;28;20080;-85
2021/11/26 05:52:40;;;;;;;12.23;7.63;;;1.00;99.90;;;;;;4991797;28;20057;-85
2021/11/26 05:55:09;;;;;;;13.90;7.25;;;1.00;99.90;;;;;;4983674;28;20030;-85
2021/11/26 05:57:35;;;;;;;13.88;7.28;;;1.00;99.90;;;;;;4990334;28;20054;-85
2021/11/26 06:00:01;;;;;;;11.07;6.65;;;1.00;99.90;;;;;;4966295;28;20173;-85
2021/11/26 06:02:27;;;;;;;8.52;5.97;;;1.00;99.90;;;;;;4992698;28;20169;-85
2021/11/26 06:04:53;;;;;;;14.13;6.97;;;1.00;99.90;;;;;;4995335;28;20452;-85
2021/11/26 06:07:19;;;;;;;11.20;6.70;;;1.00;99.90;;;;;;5001104;28;20044;-85
2021/11/26 06:09:45;;;;;;;9.65;6.15;;;1.00;99.90;;;;;;4985712;28;20488;-86
2021/11/26 06:12:10;;;;;;;13.95;7.10;;;1.00;99.90;;;;;;4980493;28;20034;-86
2021/11/26 06:14:37;;;;;;;11.07;6.47;;;1.00;99.90;;;;;;5012672;28;20221;-85
2021/11/26 06:17:03;;;;;;;9.52;5.80;;;1.00;99.90;;;;;;4992765;28;20116;-85
2021/11/26 06:19:29;;;;;;;9.35;5.93;;;1.00;99.90;;;;;;4993206;28;20453;-86
2021/11/26 06:21:55;;;;;;;11.07;6.25;;;1.10;99.90;;;;;;5012988;28;20037;-86
2021/11/26 06:24:21;;;;;;;11.35;7.00;;;1.10;99.90;;;;;;4979244;28;20025;-86
2021/11/26 06:26:47;;;;;;;11.65;6.65;;;1.10;99.90;;;;;;4979532;28;20429;-85
2021/11/26 06:29:13;;;;;;;12.93;6.88;;;1.10;99.90;;;;;;4994902;28;20053;-85
2021/11/26 06:31:40;;;;;;;12.30;7.32;;;1.10;99.90;;;;;;4993239;28;20034;-85
2021/11/26 06:34:05;;;;;;;14.55;6.55;;;1.10;99.90;;;;;;5012597;28;20025;-85
2021/11/26 06:36:32;;;;;;;15.98;7.30;;;1.10;99.90;;;;;;4997065;28;20107;-85
2021/11/26 06:38:59;;;;;;;12.77;7.20;;;1.10;99.90;;;;;;5012084;28;20067;-85
2021/11/26 06:41:25;;;;;;;12.93;7.07;;;1.10;99.90;;;;;;4982826;28;20125;-85
2021/11/26 06:43:51;;;;;;;11.02;6.68;;;1.10;99.90;;;;;;4994036;28;20128;-86
2021/11/26 06:46:17;;;;;;;12.63;7.25;;;1.10;99.90;;;;;;4995070;28;20042;-84
2021/11/26 06:48:43;;;;;;;12.82;7.38;;;1.10;99.90;;;;;;4995486;28;20076;-84
2021/11/26 06:51:09;;;;;;;12.88;6.90;;;1.10;99.90;;;;;;4995681;28;20061;-85
2021/11/26 06:53:34;;;;;;;12.00;7.25;;;1.10;99.90;;;;;;4992058;28;20061;-85
2021/11/26 06:56:00;;;;;;;13.35;7.38;;;1.10;99.90;;;;;;4992250;28;20971;-85
2021/11/26 06:58:26;;;;;;;11.48;7.32;;;1.00;99.90;;;;;;4986285;28;20034;-86
2021/11/26 07:00:52;;;;;;;12.75;6.72;;;1.00;99.90;;;;;;4995238;28;20048;-86
2021/11/26 07:03:18;;;;;;;12.13;6.70;;;1.10;99.90;;;;;;5010817;28;20117;-86
2021/11/26 07:05:43;;;;;;;11.85;6.80;;;1.10;99.90;;;;;;5007584;28;20395;-86
2021/11/26 07:08:09;;;;;;;12.80;7.45;;;1.10;99.90;;;;;;4994997;28;20448;-85
2021/11/26 07:10:35;;;;;;;11.70;6.88;;;1.00;99.90;;;;;;4972591;28;20064;-86
2021/11/26 07:13:01;;;;;;;10.68;6.82;;;1.00;99.90;;;;;;4994366;28;20058;-85
2021/11/26 07:15:27;;;;;;;14.00;7.60;;;1.10;99.90;;;;;;4978124;28;20526;-85
2021/11/26 07:17:52;;;;;;;13.18;6.82;;;1.10;99.90;;;;;;4991870;28;20445;-85
2021/11/26 07:20:18;;;;;;;10.93;6.95;;;1.00;99.90;;;;;;4994214;28;20117;-85
2021/11/26 07:22:44;;;;;;;11.65;7.10;;;1.00;99.90;;;;;;4976150;28;20026;-85
2021/11/26 07:25:10;;;;;;;13.63;6.93;;;1.00;99.90;;;;;;4974974;28;20034;-84
2021/11/26 07:27:36;;;;;;;13.05;7.60;;;1.00;99.90;;;;;;5023848;28;20033;-84
2021/11/26 07:30:05;;;;;;;12.80;7.05;;;1.10;99.90;;;;;;4978397;28;20408;-83
2021/11/26 07:32:31;;;;;;;11.20;6.97;;;1.10;99.90;;;;;;4978993;28;20574;-84
2021/11/26 07:34:57;;;;;;;10.65;6.88;;;1.10;99.90;;;;;;5013425;28;20045;-84
2021/11/26 07:37:25;;;;;;;13.38;7.38;;;1.10;99.90;;;;;;5002289;28;20455;-85
2021/11/26 07:39:51;;;;;;;11.63;6.35;;;1.10;99.90;;;;;;4994776;28;20145;-85
2021/11/26 07:42:17;;;;;;;11.95;6.93;;;1.10;99.90;;;;;;5003017;28;20038;-85
2021/11/26 07:44:43;;;;;;;12.48;7.03;;;1.10;99.90;;;;;;4978791;28;20033;-85
2021/11/26 07:47:11;;;;;;;12.52;6.68;;;1.10;99.90;;;;;;5021763;22;20031;-80
2021/11/26 07:49:37;;;;;;;12.93;6.72;;;1.20;99.90;;;;;;5011147;28;20038;-78
2021/11/26 07:52:04;;;;;;;11.73;6.78;;;1.20;99.90;;;;;;5008946;28;20113;-79
2021/11/26 07:54:30;;;;;;;10.27;6.72;;;1.20;99.90;;;;;;5012115;28;20029;-80
2021/11/26 07:56:56;;;;;;;12.43;6.85;;;1.20;99.90;;;;;;4986280;28;20025;-79
2021/11/26 07:59:24;;;;;;;11.10;6.38;;;1.20;99.90;;;;;;5011922;28;20407;-79
2021/11/26 08:01:50;;;;;;;12.48;6.60;;;1.20;99.90;;;;;;5010939;28;20029;-79
2021/11/26 08:04:17;;;;;;;10.80;6.40;;;1.20;99.90;;;;;;5010695;28;20133;-80
2021/11/26 08:06:46;;;;;;;8.48;5.43;;;1.20;99.90;;;;;;4992322;28;20480;-79
2021/11/26 08:09:14;;;;;;;9.25;5.63;;;1.20;99.90;;;;;;5008557;28;20058;-79
2021/11/26 08:11:40;;;;;;;11.23;6.72;;;1.20;99.90;;;;;;5015002;28;20061;-79
2021/11/26 08:14:05;;;;;;;9.43;5.82;;;1.20;99.90;;;;;;5010508;28;20092;-79
2021/11/26 08:16:31;;;;;;;10.57;5.75;;;1.20;99.90;;;;;;5009825;28;20026;-80
2021/11/26 08:18:57;;;;;;;8.25;5.25;;;1.20;99.90;;;;;;5013099;28;20030;-80
2021/11/26 08:21:23;;;;;;;9.73;5.90;;;1.30;99.90;;;;;;4993395;28;20531;-79
2021/11/26 08:23:49;;;;;;;11.88;6.47;;;1.30;99.90;;;;;;4996105;28;20077;-78
2021/11/26 08:26:15;;;;;;;14.25;6.38;;;1.30;99.90;;;;;;4995204;28;20042;-81
2021/11/26 08:28:40;;;;;;;11.25;6.13;;;1.40;99.90;;;;;;5015005;28;20058;-81
2021/11/26 08:31:06;;;;;;;9.05;5.60;;;1.40;99.90;;;;;;5013256;28;20045;-79
2021/11/26 08:33:32;;;;;;;10.23;5.72;;;1.40;99.90;;;;;;5008640;28;20018;-79
2021/11/26 08:35:58;;;;;;;11.93;6.57;;;1.50;99.90;;;;;;5010544;28;20108;-79
2021/11/26 08:38:24;;;;;;;11.52;6.68;;;1.50;99.90;;;;;;4995565;28;20041;-80
2021/11/26 08:40:50;;;;;;;9.63;6.10;;;1.50;99.90;;;;;;5009538;28;20120;-80
2021/11/26 08:43:16;;;;;;;12.68;6.53;;;1.50;99.90;;;;;;4996760;28;20168;-80
2021/11/26 08:45:42;;;;;;;13.68;6.63;;;1.50;99.90;;;;;;5010156;28;20104;-79
2021/11/26 08:48:08;;;;;;;11.15;6.60;;;1.50;99.90;;;;;;5009276;28;20488;-80
2021/11/26 08:50:35;;;;;;;13.10;7.50;;;1.50;99.90;;;;;;5012828;28;20026;-79
2021/11/26 08:53:05;;;;;;;14.52;7.20;;;1.50;99.90;;;;;;5012907;28;20030;-80
2021/11/26 08:55:31;;;;;;;11.63;6.60;;;1.50;99.90;;;;;;5008802;28;20030;-81
2021/11/26 08:57:58;;;;;;;12.82;6.93;;;1.50;99.90;;;;;;5013566;28;20060;-80
2021/11/26 09:00:35;;;;;;;10.23;6.10;;;1.50;99.90;;;;;;5010880;28;20143;-80
2021/11/26 09:03:04;;;;;;;10.95;6.40;;;1.40;99.90;;;;;;5007802;28;20050;-79
2021/11/26 09:05:30;;;;;;;9.18;5.53;;;1.50;99.90;;;;;;5010485;28;20030;-81
2021/11/26 09:08:01;;;;;;;11.27;6.43;;;1.50;99.90;;;;;;5006506;28;20033;-80
2021/11/26 09:10:30;;;;;;;10.25;6.25;;;1.50;99.90;;;;;;5009547;28;20030;-80
2021/11/26 09:12:55;;;;;;;10.85;6.03;;;1.50;99.90;;;;;;5008611;28;20022;-80
2021/11/26 09:15:22;;;;;;;13.40;7.25;;;1.60;99.90;;;;;;5009754;28;20109;-78
2021/11/26 09:17:49;;;;;;;9.57;5.63;;;1.60;99.90;;;;;;4995458;28;20079;-80
2021/11/26 09:20:15;;;;;;;10.88;6.85;;;1.60;99.90;;;;;;4992636;28;20650;-80
2021/11/26 09:22:40;;;;;;;9.70;6.03;;;1.70;99.90;;;;;;5010082;28;20029;-81
2021/11/26 09:25:07;;;;;;;11.95;5.82;;;1.70;99.90;;;;;;5009599;28;20038;-80
2021/11/26 09:27:33;;;;;;;11.02;6.03;;;1.80;99.90;;;;;;4995859;28;20087;-80
2021/11/26 09:29:59;;;;;;;10.93;6.25;;;1.80;99.90;;;;;;4994259;28;20119;-81
2021/11/26 09:32:25;;;;;;;11.60;6.57;;;1.80;99.90;;;;;;5006147;28;20431;-79
2021/11/26 09:34:51;;;;;;;11.60;6.10;;;1.90;99.90;;;;;;5011721;28;20109;-82
2021/11/26 09:37:17;;;;;;;11.00;6.35;;;1.90;99.90;;;;;;5012267;28;20105;-80
2021/11/26 09:39:43;;;;;;;12.32;7.22;;;2.00;99.90;;;;;;5010416;28;20045;-80
2021/11/26 09:42:10;;;;;;;13.55;7.03;;;2.10;99.90;;;;;;5008723;28;20448;-81
2021/11/26 09:44:38;;;;;;;13.10;7.45;;;2.10;99.90;;;;;;5008600;28;20037;-79
2021/11/26 09:47:05;;;;;;;11.13;6.07;;;2.10;99.90;;;;;;5014272;28;20030;-79
2021/11/26 09:49:32;;;;;;;11.20;6.65;;;2.00;99.90;;;;;;5013613;28;20112;-80
2021/11/26 09:51:58;;;;;;;11.43;6.53;;;2.10;99.90;;;;;;5020500;28;20041;-79
2021/11/26 09:54:24;;;;;;;10.77;6.57;;;2.10;99.90;;;;;;5016035;28;20030;-80
2021/11/26 09:56:50;;;;;;;12.35;6.78;;;2.20;99.90;;;;;;5013242;28;20083;-80
2021/11/26 09:59:18;;;;;;;14.82;7.13;;;2.20;99.90;;;;;;4979216;28;20046;-79
2021/11/26 10:01:43;;;;;;;11.32;6.53;;;2.20;99.90;;;;;;5015390;28;20038;-81
2021/11/26 10:04:20;;;;;;;12.85;6.80;;;2.10;99.90;;;;;;4979907;28;20038;-78
2021/11/26 10:06:47;;;;;;;10.70;6.82;;;2.10;99.90;;;;;;5012412;28;20109;-80
2021/11/26 10:09:19;;;;;;;11.65;6.30;;;2.10;99.90;;;;;;5013622;28;20104;-81
2021/11/26 10:11:51;;;;;;;9.85;6.05;;;2.10;99.90;;;;;;4990685;28;20022;-79
2021/11/26 10:14:20;;;;;;;10.80;6.38;;;2.20;99.90;;;;;;5012486;28;20556;-79
2021/11/26 10:16:49;;;;;;;9.45;5.55;;;2.30;99.90;;;;;;5012336;28;20087;-79
2021/11/26 10:19:16;;;;;;;9.65;5.40;;;2.30;99.90;;;;;;5016454;28;20642;-81
2021/11/26 10:21:43;;;;;;;8.50;5.07;;;2.40;99.90;;;;;;5014834;28;20032;-79
2021/11/26 10:24:17;;;;;;;9.32;5.75;;;2.40;99.90;;;;;;5014423;28;20049;-80
2021/11/26 10:26:53;;;;;;;8.07;5.10;;;2.50;99.90;;;;;;5041598;23;20097;-81
2021/11/26 10:29:31;;;;;;;13.10;6.72;;;2.60;99.90;;;;;;5017247;28;20104;-79
2021/11/26 10:32:12;;;;;;;9.98;6.18;;;2.70;99.90;;;;;;5004167;28;20051;-80
2021/11/26 10:34:40;;;;;;;8.20;5.38;;;2.80;99.90;;;;;;5038272;28;20487;-81
2021/11/26 10:37:23;;;;;;;9.35;6.18;;;2.80;99.90;;;;;;5014954;28;20041;-79
2021/11/26 10:39:49;;;;;;;8.35;5.13;;;2.80;99.90;;;;;;5010559;28;20046;-79
2021/11/26 10:42:28;;;;;;;6.70;4.78;;;2.90;99.90;;;;;;5015124;28;20057;-80
2021/11/26 10:44:59;;;;;;;8.07;4.93;;;3.00;99.90;;;;;;5014622;28;20046;-79
2021/11/26 10:58:38;;;;;;;9.05;4.72;;;3.20;99.90;;;;;;5007384;28;20037;-79
2021/11/26 11:01:13;;;;;;;9.75;5.50;;;3.20;99.90;;;;;;5008528;28;20041;-79
2021/11/26 11:03:40;;;;;;;8.80;4.88;;;3.20;99.90;;;;;;5014252;28;20038;-80
2021/11/26 11:06:20;;;;;;;9.98;5.40;;;3.20;99.90;;;;;;5012504;28;20041;-79
2021/11/26 11:08:58;;;;;;;9.52;5.50;;;3.20;99.90;;;;;;5008437;28;20042;-80
2021/11/26 11:11:23;;;;;;;11.00;5.60;;;3.10;99.90;;;;;;5011993;28;20101;-79
2021/11/26 11:13:49;;;;;;;9.38;5.35;;;3.20;99.90;;;;;;5015211;28;20050;-79
2021/11/26 11:16:15;;;;;;;10.15;5.50;;;3.10;99.90;;;;;;5012767;28;20029;-78
2021/11/26 11:18:41;;;;;;;10.90;5.88;;;3.00;99.90;;;;;;5013353;28;20041;-80
2021/11/26 11:21:08;;;;;;;10.10;5.15;;;3.00;99.90;;;;;;5029854;28;20033;-78
2021/11/26 11:23:34;;;;;;;8.63;4.95;;;3.00;99.90;;;;;;5014873;28;20030;-78
2021/11/26 11:26:01;;;;;;;10.10;4.70;;;3.00;99.90;;;;;;5029406;28;20033;-78
2021/11/26 11:28:28;;;;;;;8.40;5.25;;;3.00;99.90;;;;;;5029792;28;20026;-78
2021/11/26 11:30:55;;;;;;;9.73;4.93;;;3.10;99.90;;;;;;5013276;28;20061;-79
2021/11/26 11:33:23;;;;;;;9.48;5.05;;;3.10;99.90;;;;;;5009817;28;20473;-78
2021/11/26 11:35:50;;;;;;;7.90;4.53;;;3.00;99.90;;;;;;5017900;28;20038;-78
2021/11/26 11:38:17;;;;;;;7.40;4.20;;;2.90;99.90;;;;;;5015800;28;20302;-79
2021/11/26 11:40:49;;;;;;;8.57;4.43;;;2.90;99.90;;;;;;5012489;28;20053;-79
2021/11/26 11:43:21;;;;;;;7.32;4.53;;;2.80;99.90;;;;;;4997390;28;20037;-79
2021/11/26 11:46:14;;;;;;;7.90;4.10;;;2.80;99.90;;;;;;5014543;28;20107;-79
2021/11/26 11:48:48;;;;;;;7.85;4.18;;;2.70;99.90;;;;;;5010000;28;20042;-80
2021/11/26 11:51:26;;;;;;;8.25;4.63;;;2.80;99.90;;;;;;5029567;28;20064;-79
2021/11/26 11:54:12;;;;;;;7.28;3.80;;;2.70;99.90;;;;;;5013046;28;20091;-78
2021/11/26 11:56:50;;;;;;;7.05;3.63;;;2.70;99.90;;;;;;5026080;28;20045;-79
2021/11/26 11:59:24;;;;;;;5.85;3.63;;;2.60;99.90;;;;;;5013403;28;20519;-79
2021/11/26 12:01:50;;;;;;;6.53;3.92;;;2.60;99.90;;;;;;5014471;28;20041;-80
2021/11/26 12:04:19;;;;;;;10.32;4.53;;;2.60;99.90;;;;;;5013958;28;20029;-80
2021/11/26 12:06:48;;;;;;;6.03;3.92;;;2.60;99.90;;;;;;5011755;28;20164;-80
2021/11/26 12:09:22;;;;;;;9.45;4.05;;;2.60;99.90;;;;;;5011974;28;20038;-78
2021/11/26 12:11:54;;;;;;;8.73;4.55;;;2.60;99.90;;;;;;5012672;28;20395;-78
2021/11/26 12:14:21;;;;;;;11.30;5.05;;;2.60;99.90;;;;;;4978697;28;20041;-78
2021/11/26 12:17:05;;;;;;;7.57;4.47;;;2.70;99.90;;;;;;5012292;28;20048;-79
2021/11/26 12:19:31;;;;;;;7.85;4.15;;;2.80;99.90;;;;;;5010490;28;20399;-79
2021/11/26 12:21:57;;;;;;;8.63;4.68;;;2.90;99.90;;;;;;5013775;28;20108;-79
2021/11/26 12:24:33;;;;;;;7.43;4.47;;;2.90;99.90;;;;;;5014105;28;20077;-79
2021/11/26 12:26:59;;;;;;;;;;;2.90;99.90;;;;;;5012519;28;20088;-78
2021/11/26 12:29:36;;;;;;;6.93;3.78;;;2.90;99.90;;;;;;5028845;28;19963;-78
2021/11/26 12:32:12;;;;;;;8.25;4.43;;;3.00;99.90;;;;;;4995493;28;20064;-79
2021/11/26 12:34:47;;;;;;;9.30;4.60;;;3.00;99.90;;;;;;5013400;28;20088;-80
2021/11/26 12:37:33;;;;;;;6.72;3.88;;;3.10;99.90;;;;;;4995975;28;20053;-79
2021/11/26 12:40:04;;;;;;;8.63;4.40;;;3.10;99.90;;;;;;4999366;28;20128;-78
2021/11/26 12:42:31;;;;;;;9.23;4.32;;;3.20;99.90;;;;;;4996485;28;20603;-80
2021/11/26 12:45:03;;;;;;;7.88;4.13;;;3.10;99.90;;;;;;4996281;28;20033;-79
2021/11/26 12:47:41;;;;;;;6.32;3.75;;;3.10;99.90;;;;;;5013711;28;20084;-78
2021/11/26 12:53:07;;;;;;;7.18;3.90;;;3.20;99.90;;;;;;5009093;28;20422;-79
2021/11/26 12:55:34;;;;;;;8.27;4.28;;;3.20;99.90;;;;;;5010132;28;20067;-78
2021/11/26 12:58:02;;;;;;;9.90;5.03;;;3.10;99.90;;;;;;5011160;28;20026;-80
2021/11/26 13:00:29;;;;;;;8.82;4.70;;;3.10;99.90;;;;;;5010446;28;20025;-80
2021/11/26 13:03:09;;;;;;;6.72;4.05;;;3.10;99.90;;;;;;4992520;28;20038;-79
2021/11/26 13:05:36;;;;;;;8.80;4.18;;;3.00;99.90;;;;;;5021191;28;20041;-79
2021/11/26 13:08:03;;;;;;;10.45;5.18;;;3.00;99.90;;;;;;5010402;28;20049;-79